Alban, Wisconsin
Current Conditions -  °F | °C
As of 4:15 AM on Thursday 29 Jan 2015 (Local Time) from KSTE Reporting Station
Haze Haze  
Wind Chill: 25°   Ceiling: 400
Heat Index: 25°   Visibility: 2mi
Dew Point: 24°   Wind: 0mph
Humidity: 97%   Direction: NA
Pressure: 29.78"   Gusts: NA
Location:  44.6794°N, 89.3392°W
Report Text: KSTE 291015Z AUTO 00000KT 2SM BR OVC004 M04/M04 A2978 RMK AO2 T10411045
Loading
Personal Weather Stations






























Interactive Weather Map New forecast layout! Learn more

10-Day Weather Forecast

Advertisements
Track Severe Weather on mobile